createdAt,value
2018-12-08T00:00:55.110Z,991.03
2018-12-08T00:01:55.099Z,990.95
2018-12-08T00:02:55.088Z,991.13
2018-12-08T00:03:55.090Z,991.07
2018-12-08T00:04:55.067Z,991.05
2018-12-08T00:05:55.060Z,991.15
2018-12-08T00:06:55.044Z,991.24
2018-12-08T00:07:55.035Z,991.11
2018-12-08T00:08:55.031Z,991.16
2018-12-08T00:09:55.011Z,991.31
2018-12-08T00:10:55.002Z,991.34
2018-12-08T00:11:54.997Z,991.57
2018-12-08T00:12:54.980Z,991.47
2018-12-08T00:13:54.977Z,991.53
2018-12-08T00:14:54.958Z,991.53
2018-12-08T00:15:54.949Z,991.55
2018-12-08T00:16:54.939Z,991.54
2018-12-08T00:17:54.932Z,991.64
2018-12-08T00:18:54.945Z,991.60
2018-12-08T00:19:54.906Z,991.66
2018-12-08T00:20:54.893Z,991.61
2018-12-08T00:21:54.930Z,991.70
2018-12-08T00:22:54.873Z,991.69
2018-12-08T00:23:54.862Z,991.67
2018-12-08T00:24:54.859Z,991.68
2018-12-08T00:25:54.840Z,991.81
2018-12-08T00:26:54.829Z,991.80
2018-12-08T00:27:54.819Z,991.87
2018-12-08T00:28:54.812Z,991.77
2018-12-08T00:29:54.809Z,991.89
2018-12-08T00:30:54.787Z,992.00
2018-12-08T00:31:54.775Z,991.93
2018-12-08T00:32:54.764Z,992.09
2018-12-08T00:33:54.754Z,992.00
2018-12-08T00:34:54.756Z,992.15
2018-12-08T00:35:54.731Z,992.19
2018-12-08T00:36:54.723Z,992.21
2018-12-08T00:37:54.710Z,992.10
2018-12-08T00:38:54.699Z,992.28
2018-12-08T00:39:54.697Z,992.24
2018-12-08T00:40:54.682Z,992.29
2018-12-08T00:41:54.670Z,992.31
2018-12-08T00:42:54.660Z,992.41
2018-12-08T00:43:54.645Z,992.61
2018-12-08T00:44:54.645Z,992.46
2018-12-08T00:45:54.627Z,992.66
2018-12-08T00:46:54.624Z,992.71
2018-12-08T00:47:54.602Z,992.79
2018-12-08T00:48:54.591Z,992.67
2018-12-08T00:49:54.589Z,992.76
2018-12-08T00:50:54.569Z,992.77
2018-12-08T00:51:54.558Z,992.86
2018-12-08T00:52:54.547Z,992.92
2018-12-08T00:53:54.537Z,992.91
2018-12-08T00:54:54.555Z,993.04
2018-12-08T00:55:54.516Z,992.96
2018-12-08T00:56:54.510Z,993.00
2018-12-08T00:57:54.496Z,993.03
2018-12-08T00:58:54.487Z,993.19
2018-12-08T00:59:54.473Z,993.32
2018-12-08T01:00:54.471Z,993.13
2018-12-08T01:01:54.453Z,993.12
2018-12-08T01:02:54.440Z,993.17
2018-12-08T01:03:54.435Z,993.18
2018-12-08T01:04:54.420Z,993.16
2018-12-08T01:05:54.418Z,993.26
2018-12-08T01:06:54.399Z,993.28
2018-12-08T01:07:54.388Z,993.29
2018-12-08T01:08:54.377Z,993.38
2018-12-08T01:09:54.370Z,993.40
2018-12-08T01:10:54.368Z,993.27
2018-12-08T01:11:54.344Z,993.36
2018-12-08T01:12:54.334Z,993.31
2018-12-08T01:13:54.324Z,993.25
2018-12-08T01:14:54.315Z,993.32
2018-12-08T01:15:54.313Z,993.29
2018-12-08T01:16:54.291Z,993.44
2018-12-08T01:17:54.281Z,993.49
2018-12-08T01:18:54.270Z,993.48
2018-12-08T01:19:54.263Z,993.52
2018-12-08T01:20:54.263Z,993.59
2018-12-08T01:21:54.239Z,993.63
2018-12-08T01:22:54.228Z,993.65
2018-12-08T01:23:54.217Z,993.69
2018-12-08T01:24:54.209Z,993.63
2018-12-08T01:25:54.204Z,993.72
2018-12-08T01:26:54.185Z,993.66
2018-12-08T01:27:54.175Z,993.72
2018-12-08T01:28:54.166Z,993.71
2018-12-08T01:29:54.154Z,993.74
2018-12-08T01:30:54.152Z,993.78
2018-12-08T01:31:54.133Z,993.91
2018-12-08T01:32:54.578Z,993.84
2018-12-08T01:33:54.222Z,993.88
2018-12-08T01:34:54.105Z,993.96
2018-12-08T01:35:54.103Z,993.95
2018-12-08T01:36:54.083Z,993.88
2018-12-08T01:37:54.073Z,993.94
2018-12-08T01:38:54.064Z,993.91
2018-12-08T01:39:54.052Z,993.89
2018-12-08T01:40:54.077Z,993.90
2018-12-08T01:41:54.033Z,993.98
2018-12-08T01:42:54.020Z,994.01
2018-12-08T01:43:54.010Z,994.00
2018-12-08T01:44:54.003Z,994.02
2018-12-08T01:45:53.989Z,993.99
2018-12-08T01:46:53.986Z,993.99
2018-12-08T01:47:53.968Z,994.06
2018-12-08T01:48:53.958Z,994.09
2018-12-08T01:49:53.949Z,994.02
2018-12-08T01:50:53.938Z,994.03
2018-12-08T01:51:53.935Z,993.95
2018-12-08T01:52:53.915Z,993.98
2018-12-08T01:53:53.905Z,994.04
2018-12-08T01:54:53.893Z,994.03
2018-12-08T01:55:53.882Z,994.02
2018-12-08T01:56:53.881Z,994.01
2018-12-08T01:57:53.861Z,993.96
2018-12-08T01:58:53.851Z,994.01
2018-12-08T01:59:53.840Z,993.99
2018-12-08T02:00:53.830Z,994.00
2018-12-08T02:01:53.827Z,994.05
2018-12-08T02:02:53.813Z,994.07
2018-12-08T02:03:53.798Z,994.06
2018-12-08T02:04:53.790Z,994.15
2018-12-08T02:05:53.777Z,994.08
2018-12-08T02:06:53.777Z,994.17
2018-12-08T02:07:53.758Z,994.19
2018-12-08T02:08:53.753Z,994.28
2018-12-08T02:09:53.737Z,994.28
2018-12-08T02:10:53.723Z,994.25
2018-12-08T02:11:53.722Z,994.34
2018-12-08T02:12:53.707Z,994.29
2018-12-08T02:13:53.692Z,994.33
2018-12-08T02:14:53.681Z,994.33
2018-12-08T02:15:53.672Z,994.36
2018-12-08T02:16:53.673Z,994.40
2018-12-08T02:17:53.648Z,994.34
2018-12-08T02:18:53.637Z,994.51
2018-12-08T02:19:53.627Z,994.49
2018-12-08T02:20:53.616Z,994.50
2018-12-08T02:21:53.607Z,994.55
2018-12-08T02:22:53.604Z,994.54
2018-12-08T02:23:53.584Z,994.55
2018-12-08T02:24:53.577Z,994.49
2018-12-08T02:25:53.566Z,994.48
2018-12-08T02:26:53.554Z,994.53
2018-12-08T02:27:53.553Z,994.47
2018-12-08T02:28:53.533Z,994.52
2018-12-08T02:29:53.520Z,994.53
2018-12-08T02:30:53.508Z,994.49
2018-12-08T02:31:53.505Z,994.52
2018-12-08T02:32:53.735Z,994.52
2018-12-08T02:33:53.477Z,994.55
2018-12-08T02:34:53.466Z,994.46
2018-12-08T02:35:53.457Z,994.45
2018-12-08T02:36:53.448Z,994.48
2018-12-08T02:37:53.451Z,994.58
2018-12-08T02:38:53.426Z,994.51
2018-12-08T02:39:53.414Z,994.44
2018-12-08T02:40:53.404Z,994.51
2018-12-08T02:41:53.394Z,994.46
2018-12-08T02:42:53.391Z,994.51
2018-12-08T02:43:53.376Z,994.41
2018-12-08T02:44:53.367Z,994.42
2018-12-08T02:45:53.351Z,994.53
2018-12-08T02:46:53.340Z,994.45
2018-12-08T02:47:53.342Z,994.45
2018-12-08T02:48:53.323Z,994.51
2018-12-08T02:49:53.308Z,994.53
2018-12-08T02:50:53.300Z,994.52
2018-12-08T02:51:53.285Z,994.37
2018-12-08T02:52:53.285Z,994.65
2018-12-08T02:53:53.271Z,994.54
2018-12-08T02:54:53.255Z,994.62
2018-12-08T02:55:53.244Z,994.58
2018-12-08T02:56:53.234Z,994.60
2018-12-08T02:57:53.250Z,994.58
2018-12-08T02:58:53.214Z,994.69
2018-12-08T02:59:53.204Z,994.78
2018-12-08T03:00:53.191Z,994.83
2018-12-08T03:01:53.181Z,994.78
2018-12-08T03:02:53.300Z,994.80
2018-12-08T03:03:53.167Z,994.87
2018-12-08T03:04:53.148Z,994.88
2018-12-08T03:05:53.137Z,994.94
2018-12-08T03:06:53.127Z,994.96
2018-12-08T03:07:53.119Z,994.98
2018-12-08T03:08:53.114Z,994.97
2018-12-08T03:09:53.100Z,994.85
2018-12-08T03:10:53.085Z,994.71
2018-12-08T03:11:53.074Z,994.72
2018-12-08T03:12:53.065Z,994.73
2018-12-08T03:13:53.060Z,994.85
2018-12-08T03:14:53.042Z,994.84
2018-12-08T03:15:53.031Z,994.90
2018-12-08T03:16:53.031Z,994.95
2018-12-08T03:17:53.011Z,994.93
2018-12-08T03:18:53.007Z,995.02
2018-12-08T03:19:52.989Z,995.01
2018-12-08T03:20:52.979Z,995.09
2018-12-08T03:21:52.968Z,995.21
2018-12-08T03:22:52.958Z,995.14
2018-12-08T03:23:52.967Z,995.20
2018-12-08T03:24:52.939Z,995.26
2018-12-08T03:25:52.924Z,995.24
2018-12-08T03:26:52.913Z,995.16
2018-12-08T03:27:52.903Z,995.15
2018-12-08T03:28:52.903Z,995.25
2018-12-08T03:29:52.883Z,995.22
2018-12-08T03:30:52.875Z,995.22
2018-12-08T03:31:52.869Z,995.28
2018-12-08T03:32:52.856Z,995.27
2018-12-08T03:33:52.870Z,995.37
2018-12-08T03:34:52.832Z,995.33
2018-12-08T03:35:52.823Z,995.38
2018-12-08T03:36:52.808Z,995.41
2018-12-08T03:37:52.801Z,995.32
2018-12-08T03:38:52.791Z,995.38
2018-12-08T03:39:52.785Z,995.27
2018-12-08T03:40:52.768Z,995.41
2018-12-08T03:41:52.759Z,995.41
2018-12-08T03:42:52.747Z,995.42
2018-12-08T03:43:52.736Z,995.51
2018-12-08T03:44:52.732Z,995.51
2018-12-08T03:45:52.712Z,995.49
2018-12-08T03:46:52.702Z,995.49
2018-12-08T03:47:52.698Z,995.51
2018-12-08T03:48:52.684Z,995.48
2018-12-08T03:49:52.681Z,995.50
2018-12-08T03:50:52.660Z,995.46
2018-12-08T03:51:52.651Z,995.56
2018-12-08T03:52:52.641Z,995.66
2018-12-08T03:53:52.632Z,995.67
2018-12-08T03:54:52.633Z,995.67
2018-12-08T03:55:52.612Z,995.72
2018-12-08T03:56:52.595Z,995.79
2018-12-08T03:57:52.587Z,995.76
2018-12-08T03:58:52.582Z,995.79
2018-12-08T03:59:52.596Z,995.76
2018-12-08T04:00:52.555Z,995.76
2018-12-08T04:01:52.543Z,995.71
2018-12-08T04:02:52.534Z,995.79
2018-12-08T04:03:52.522Z,995.74
2018-12-08T04:04:52.512Z,995.66
2018-12-08T04:05:52.511Z,995.68
2018-12-08T04:06:52.490Z,995.66
2018-12-08T04:07:52.480Z,995.66
2018-12-08T04:08:52.472Z,995.65
2018-12-08T04:09:52.464Z,995.66
2018-12-08T04:10:52.458Z,995.66
2018-12-08T04:11:52.441Z,995.62
2018-12-08T04:12:52.427Z,995.62
2018-12-08T04:13:52.414Z,995.57
2018-12-08T04:14:52.405Z,995.59
2018-12-08T04:15:52.405Z,995.65
2018-12-08T04:16:52.388Z,995.60
2018-12-08T04:17:52.380Z,995.57
2018-12-08T04:18:52.362Z,995.62
2018-12-08T04:19:52.351Z,995.67
2018-12-08T04:20:52.348Z,995.67
2018-12-08T04:21:52.328Z,995.65
2018-12-08T04:22:52.322Z,995.72
2018-12-08T04:23:52.307Z,995.73
2018-12-08T04:24:52.295Z,995.75
2018-12-08T04:25:52.295Z,995.76
2018-12-08T04:26:52.276Z,995.85
2018-12-08T04:27:52.265Z,995.85
2018-12-08T04:28:52.256Z,995.89
2018-12-08T04:29:52.255Z,995.91
2018-12-08T04:30:52.246Z,995.91
2018-12-08T04:31:52.222Z,995.93
2018-12-08T04:32:52.211Z,995.91
2018-12-08T04:33:52.199Z,995.91
2018-12-08T04:34:52.194Z,995.92
2018-12-08T04:35:52.186Z,995.94
2018-12-08T04:36:52.169Z,995.90
2018-12-08T04:37:52.156Z,995.93
2018-12-08T04:38:52.146Z,995.89
2018-12-08T04:39:52.137Z,995.91
2018-12-08T04:40:52.134Z,995.89
2018-12-08T04:41:52.113Z,995.99
2018-12-08T04:42:52.103Z,996.00
2018-12-08T04:43:52.092Z,996.03
2018-12-08T04:44:52.082Z,996.02
2018-12-08T04:45:52.080Z,996.00
2018-12-08T04:46:52.065Z,996.07
2018-12-08T04:47:52.054Z,996.05
2018-12-08T04:48:52.037Z,996.05
2018-12-08T04:49:52.030Z,996.09
2018-12-08T04:50:52.024Z,996.10
2018-12-08T04:51:52.004Z,996.11
2018-12-08T04:52:52.000Z,996.13
2018-12-08T04:53:51.983Z,996.14
2018-12-08T04:54:51.971Z,996.19
2018-12-08T04:55:51.973Z,996.17
2018-12-08T04:56:51.950Z,996.19
2018-12-08T04:57:51.946Z,996.17
2018-12-08T04:58:51.929Z,996.18
2018-12-08T04:59:51.919Z,996.21
2018-12-08T05:00:51.920Z,996.27
2018-12-08T05:01:51.896Z,996.30
2018-12-08T05:02:51.887Z,996.34
2018-12-08T05:03:51.881Z,996.38
2018-12-08T05:04:51.871Z,996.42
2018-12-08T05:05:51.894Z,996.40
2018-12-08T05:06:51.844Z,996.39
2018-12-08T05:07:51.835Z,996.35
2018-12-08T05:08:51.825Z,996.40
2018-12-08T05:09:51.817Z,996.40
2018-12-08T05:10:51.802Z,996.37
2018-12-08T05:11:51.797Z,996.45
2018-12-08T05:12:51.778Z,996.52
2018-12-08T05:13:51.768Z,996.52
2018-12-08T05:14:51.761Z,996.57
2018-12-08T05:15:51.747Z,996.65
2018-12-08T05:16:51.747Z,996.64
2018-12-08T05:17:51.725Z,996.69
2018-12-08T05:18:51.713Z,996.72
2018-12-08T05:19:51.703Z,996.76
2018-12-08T05:20:51.691Z,996.77
2018-12-08T05:21:51.693Z,996.83
2018-12-08T05:22:51.701Z,996.76
2018-12-08T05:23:51.660Z,996.73
2018-12-08T05:24:51.649Z,996.75
2018-12-08T05:25:51.639Z,996.80
2018-12-08T05:26:51.639Z,996.79
2018-12-08T05:27:51.618Z,996.75
2018-12-08T05:28:51.606Z,996.72
2018-12-08T05:29:51.595Z,996.67
2018-12-08T05:30:51.585Z,996.71
2018-12-08T05:31:51.586Z,996.72
2018-12-08T05:32:51.565Z,996.70
2018-12-08T05:33:51.554Z,996.71
2018-12-08T05:34:51.542Z,996.70
2018-12-08T05:35:51.531Z,996.73
2018-12-08T05:36:51.528Z,996.69
2018-12-08T05:37:51.509Z,996.70
2018-12-08T05:38:51.503Z,996.67
2018-12-08T05:39:51.487Z,996.67
2018-12-08T05:40:51.476Z,996.67
2018-12-08T05:41:51.476Z,996.71
2018-12-08T05:42:51.456Z,996.70
2018-12-08T05:43:51.450Z,996.79
2018-12-08T05:44:51.433Z,996.70
2018-12-08T05:45:51.422Z,996.70
2018-12-08T05:46:51.420Z,996.69
2018-12-08T05:47:51.403Z,996.72
2018-12-08T05:48:51.391Z,996.66
2018-12-08T05:49:51.379Z,996.63
2018-12-08T05:50:51.370Z,996.69
2018-12-08T05:51:51.366Z,996.76
2018-12-08T05:52:51.348Z,996.69
2018-12-08T05:53:51.336Z,996.77
2018-12-08T05:54:51.325Z,996.75
2018-12-08T05:55:51.318Z,996.75
2018-12-08T05:56:51.319Z,996.76
2018-12-08T05:57:51.293Z,996.71
2018-12-08T05:58:51.282Z,996.76
2018-12-08T05:59:51.272Z,996.76
2018-12-08T06:00:51.261Z,996.64
2018-12-08T06:01:51.263Z,996.71
2018-12-08T06:02:51.240Z,996.79
2018-12-08T06:03:51.232Z,996.74
2018-12-08T06:04:51.219Z,996.78
2018-12-08T06:05:51.208Z,996.76
2018-12-08T06:06:51.205Z,996.76
2018-12-08T06:07:51.194Z,996.74
2018-12-08T06:08:51.175Z,996.70
2018-12-08T06:09:51.168Z,996.76
2018-12-08T06:10:51.155Z,996.72
2018-12-08T06:11:51.156Z,996.70
2018-12-08T06:12:51.137Z,996.74
2018-12-08T06:13:51.130Z,996.72
2018-12-08T06:14:51.113Z,996.74
2018-12-08T06:15:51.101Z,996.73
2018-12-08T06:16:51.099Z,996.77
2018-12-08T06:17:51.084Z,996.81
2018-12-08T06:18:51.073Z,996.80
2018-12-08T06:19:51.059Z,996.81
2018-12-08T06:20:51.048Z,996.82
2018-12-08T06:21:51.051Z,996.77
2018-12-08T06:22:51.027Z,996.73
2018-12-08T06:23:51.023Z,996.78
2018-12-08T06:24:51.006Z,996.76
2018-12-08T06:25:50.995Z,996.73
2018-12-08T06:26:51.017Z,996.69
2018-12-08T06:27:50.974Z,996.68
2018-12-08T06:28:50.964Z,996.68
2018-12-08T06:29:50.953Z,996.65
2018-12-08T06:30:51.019Z,996.63
2018-12-08T06:31:50.934Z,996.65
2018-12-08T06:32:50.930Z,996.56
2018-12-08T06:33:50.914Z,996.64
2018-12-08T06:34:50.901Z,996.56
2018-12-08T06:35:50.890Z,996.58
2018-12-08T06:36:50.881Z,996.59
2018-12-08T06:37:50.876Z,996.61
2018-12-08T06:38:50.858Z,996.62
2018-12-08T06:39:50.848Z,996.59
2018-12-08T06:40:50.837Z,996.62
2018-12-08T06:41:50.827Z,996.58
2018-12-08T06:42:50.824Z,996.60
2018-12-08T06:43:50.805Z,996.59
2018-12-08T06:44:50.795Z,996.55
2018-12-08T06:45:50.783Z,996.53
2018-12-08T06:46:50.782Z,996.59
2018-12-08T06:47:50.774Z,996.58
2018-12-08T06:48:50.755Z,996.59
2018-12-08T06:49:50.743Z,996.61
2018-12-08T06:50:50.732Z,996.60
2018-12-08T06:51:50.723Z,996.61
2018-12-08T06:52:50.719Z,996.62
2018-12-08T06:53:50.700Z,996.59
2018-12-08T06:54:50.695Z,996.68
2018-12-08T06:55:50.680Z,996.67
2018-12-08T06:56:50.668Z,996.63
2018-12-08T06:57:50.666Z,996.65
2018-12-08T06:58:50.648Z,996.67
2018-12-08T06:59:50.639Z,996.65
2018-12-08T07:00:50.633Z,996.64
2018-12-08T07:01:50.616Z,996.68
2018-12-08T07:02:50.613Z,996.70
2018-12-08T07:03:50.593Z,996.70
2018-12-08T07:04:50.686Z,996.68
2018-12-08T07:05:50.572Z,996.65
2018-12-08T07:06:50.562Z,996.69
2018-12-08T07:07:50.561Z,996.69
2018-12-08T07:08:50.541Z,996.62
2018-12-08T07:09:50.530Z,996.62
2018-12-08T07:10:50.520Z,996.66
2018-12-08T07:11:50.509Z,996.68
2018-12-08T07:12:50.513Z,996.67
2018-12-08T07:13:50.489Z,996.66
2018-12-08T07:14:50.477Z,996.64
2018-12-08T07:15:50.466Z,996.65
2018-12-08T07:16:50.456Z,996.68
2018-12-08T07:17:50.455Z,996.65
2018-12-08T07:18:50.438Z,996.71
2018-12-08T07:19:50.425Z,996.71
2018-12-08T07:20:50.414Z,996.64
2018-12-08T07:21:50.404Z,996.66
2018-12-08T07:22:50.403Z,996.69
2018-12-08T07:23:50.384Z,996.65
2018-12-08T07:24:50.372Z,996.66
2018-12-08T07:25:50.364Z,996.63
2018-12-08T07:26:50.351Z,996.60
2018-12-08T07:27:50.353Z,996.56
2018-12-08T07:28:50.331Z,996.58
2018-12-08T07:29:50.322Z,996.57
2018-12-08T07:30:50.308Z,996.59
2018-12-08T07:31:50.298Z,996.55
2018-12-08T07:32:50.312Z,996.63
2018-12-08T07:33:50.277Z,996.63
2018-12-08T07:34:50.347Z,996.67
2018-12-08T07:35:50.259Z,996.68
2018-12-08T07:36:50.244Z,996.65
2018-12-08T07:37:50.235Z,996.70
2018-12-08T07:38:50.232Z,996.67
2018-12-08T07:39:50.213Z,996.67
2018-12-08T07:40:50.203Z,996.72
2018-12-08T07:41:50.196Z,996.68
2018-12-08T07:42:50.182Z,996.64
2018-12-08T07:43:50.179Z,996.62
2018-12-08T07:44:50.160Z,996.63
2018-12-08T07:45:50.153Z,996.61
2018-12-08T07:46:50.142Z,996.57
2018-12-08T07:47:50.128Z,996.55
2018-12-08T07:48:50.125Z,996.54
2018-12-08T07:49:50.108Z,996.60
2018-12-08T07:50:50.101Z,996.55
2018-12-08T07:51:50.088Z,996.60
2018-12-08T07:52:50.079Z,996.58
2018-12-08T07:53:50.084Z,996.54
2018-12-08T07:54:50.159Z,996.49
2018-12-08T07:55:50.118Z,996.56
2018-12-08T07:56:50.112Z,996.57
2018-12-08T07:57:50.111Z,996.56
2018-12-08T07:58:50.741Z,996.55
2018-12-08T07:59:50.099Z,996.49
2018-12-08T08:00:50.180Z,996.45
2018-12-08T08:01:49.983Z,996.51
2018-12-08T08:02:49.972Z,996.48
2018-12-08T08:03:49.968Z,996.51
2018-12-08T08:04:49.950Z,996.49
2018-12-08T08:05:49.934Z,996.43
2018-12-08T08:06:49.924Z,996.44
2018-12-08T08:07:49.912Z,996.45
2018-12-08T08:08:49.910Z,996.46
2018-12-08T08:09:49.891Z,996.47
2018-12-08T08:10:49.889Z,996.46
2018-12-08T08:11:49.870Z,996.42
2018-12-08T08:12:49.860Z,996.44
2018-12-08T08:13:49.860Z,996.36
2018-12-08T08:14:49.839Z,996.33
2018-12-08T08:15:49.826Z,996.39
2018-12-08T08:16:49.816Z,996.38
2018-12-08T08:17:49.805Z,996.38
2018-12-08T08:18:49.803Z,996.33
2018-12-08T08:19:49.782Z,996.38
2018-12-08T08:20:49.773Z,996.37
2018-12-08T08:21:49.762Z,996.35
2018-12-08T08:22:49.750Z,996.34
2018-12-08T08:23:49.750Z,996.28
2018-12-08T08:24:49.729Z,996.37
2018-12-08T08:25:49.720Z,996.37
2018-12-08T08:26:49.710Z,996.26
2018-12-08T08:27:49.700Z,996.33
2018-12-08T08:28:49.703Z,996.32
2018-12-08T08:29:49.675Z,996.30
2018-12-08T08:30:49.667Z,996.27
2018-12-08T08:31:49.738Z,996.36
2018-12-08T08:32:49.642Z,996.33
2018-12-08T08:33:49.648Z,996.32
2018-12-08T08:34:49.621Z,996.20
2018-12-08T08:35:49.610Z,996.23
2018-12-08T08:36:49.598Z,996.21
2018-12-08T08:37:49.590Z,996.14
2018-12-08T08:38:49.589Z,996.16
2018-12-08T08:39:49.573Z,996.24
2018-12-08T08:40:49.560Z,996.20
2018-12-08T08:41:49.546Z,996.21
2018-12-08T08:42:49.537Z,996.22
2018-12-08T08:43:49.535Z,996.29
2018-12-08T08:44:49.516Z,996.30
2018-12-08T08:45:49.513Z,996.33
2018-12-08T08:46:49.491Z,996.21
2018-12-08T08:47:49.509Z,996.22
2018-12-08T08:48:49.480Z,996.23
2018-12-08T08:49:49.459Z,996.19
2018-12-08T08:50:49.450Z,996.16
2018-12-08T08:51:49.437Z,996.17
2018-12-08T08:52:49.428Z,996.16
2018-12-08T08:53:49.494Z,996.13
2018-12-08T08:54:49.406Z,996.22
2018-12-08T08:55:49.408Z,996.10
2018-12-08T08:56:49.386Z,996.10
2018-12-08T08:57:49.373Z,996.14
2018-12-08T08:58:49.375Z,995.97
2018-12-08T08:59:49.361Z,996.07
2018-12-08T09:00:49.340Z,996.07
2018-12-08T09:01:49.331Z,996.09
2018-12-08T09:02:49.327Z,996.07
2018-12-08T09:03:49.308Z,996.06
2018-12-08T09:04:49.305Z,996.01
2018-12-08T09:05:49.290Z,995.99
2018-12-08T09:06:49.277Z,996.02
2018-12-08T09:07:49.267Z,995.96
2018-12-08T09:08:49.260Z,995.87
2018-12-08T09:09:49.252Z,995.99
2018-12-08T09:10:49.233Z,995.86
2018-12-08T09:11:49.221Z,995.89
2018-12-08T09:12:49.212Z,995.89
2018-12-08T09:13:49.202Z,995.93
2018-12-08T09:14:49.204Z,995.99
2018-12-08T09:15:49.971Z,995.99
2018-12-08T09:16:49.168Z,995.90
2018-12-08T09:17:49.157Z,995.87
2018-12-08T09:18:49.147Z,995.93
2018-12-08T09:19:49.146Z,995.98
2018-12-08T09:20:49.124Z,995.97
2018-12-08T09:21:49.113Z,995.98
2018-12-08T09:22:49.111Z,995.91
2018-12-08T09:23:49.093Z,995.85
2018-12-08T09:24:49.090Z,995.88
2018-12-08T09:25:49.072Z,995.91
2018-12-08T09:26:49.060Z,995.91
2018-12-08T09:27:49.295Z,995.84
2018-12-08T09:28:49.040Z,995.90
2018-12-08T09:29:49.069Z,995.98
2018-12-08T09:30:49.018Z,995.92
2018-12-08T09:31:49.012Z,995.91
2018-12-08T09:32:48.995Z,995.97
2018-12-08T09:33:48.985Z,995.90
2018-12-08T09:34:48.977Z,995.98
2018-12-08T09:35:48.983Z,995.87
2018-12-08T09:36:48.954Z,995.84
2018-12-08T09:37:48.949Z,995.86
2018-12-08T09:38:48.932Z,995.88
2018-12-08T09:39:48.923Z,995.77
2018-12-08T09:40:48.920Z,995.81
2018-12-08T09:41:48.902Z,995.84
2018-12-08T09:42:48.891Z,995.91
2018-12-08T09:43:48.897Z,995.80
2018-12-08T09:44:48.869Z,995.76
2018-12-08T09:45:48.869Z,995.83
2018-12-08T09:46:48.848Z,995.74
2018-12-08T09:47:48.917Z,995.73
2018-12-08T09:48:48.842Z,995.69
2018-12-08T09:49:48.818Z,995.73
2018-12-08T09:50:48.816Z,995.72
2018-12-08T09:51:48.795Z,995.69
2018-12-08T09:52:48.785Z,995.67
2018-12-08T09:53:48.779Z,995.69
2018-12-08T09:54:48.773Z,995.69
2018-12-08T09:55:48.771Z,995.65
2018-12-08T09:56:48.742Z,995.62
2018-12-08T09:57:48.733Z,995.69
2018-12-08T09:58:48.721Z,995.58
2018-12-08T09:59:48.710Z,995.53
2018-12-08T10:00:48.714Z,995.46
2018-12-08T10:01:48.689Z,995.50
2018-12-08T10:02:48.682Z,995.47
2018-12-08T10:03:48.667Z,995.43
2018-12-08T10:04:48.656Z,995.51
2018-12-08T10:05:48.658Z,995.40
2018-12-08T10:06:48.643Z,995.42
2018-12-08T10:07:48.625Z,995.35
2018-12-08T10:08:48.614Z,995.35
2018-12-08T10:09:48.607Z,995.43
2018-12-08T10:10:48.608Z,995.31
2018-12-08T10:11:48.583Z,995.38
2018-12-08T10:12:48.577Z,995.26
2018-12-08T10:13:48.562Z,995.33
2018-12-08T10:14:48.553Z,995.32
2018-12-08T10:15:48.568Z,995.33
2018-12-08T10:16:48.529Z,995.27
2018-12-08T10:17:48.520Z,995.14
2018-12-08T10:18:48.532Z,995.21
2018-12-08T10:19:48.500Z,995.21
2018-12-08T10:20:48.489Z,995.14
2018-12-08T10:21:48.486Z,995.14
2018-12-08T10:22:48.468Z,995.12
2018-12-08T10:23:48.457Z,995.21
2018-12-08T10:24:48.467Z,995.16
2018-12-08T10:25:48.435Z,995.12
2018-12-08T10:26:48.433Z,995.17
2018-12-08T10:27:48.413Z,995.11
2018-12-08T10:28:48.405Z,995.00
2018-12-08T10:29:48.396Z,995.15
2018-12-08T10:30:48.382Z,994.99
2018-12-08T10:31:48.383Z,994.93
2018-12-08T10:32:48.362Z,994.94
2018-12-08T10:33:48.354Z,994.92
2018-12-08T10:34:48.345Z,994.99
2018-12-08T10:35:48.329Z,994.92
2018-12-08T10:36:48.331Z,994.96
2018-12-08T10:37:48.308Z,994.88
2018-12-08T10:38:48.298Z,994.91
2018-12-08T10:39:48.289Z,994.93
2018-12-08T10:40:48.276Z,994.94
2018-12-08T10:41:48.277Z,995.01
2018-12-08T10:42:48.257Z,994.95
2018-12-08T10:43:48.245Z,994.88
2018-12-08T10:44:48.236Z,994.80
2018-12-08T10:45:48.224Z,994.87
2018-12-08T10:46:48.224Z,994.77
2018-12-08T10:47:48.204Z,994.82
2018-12-08T10:48:48.193Z,994.82
2018-12-08T10:49:48.182Z,994.79
2018-12-08T10:50:48.171Z,994.74
2018-12-08T10:51:48.193Z,994.81
2018-12-08T10:52:48.151Z,994.81
2018-12-08T10:53:48.141Z,994.81
2018-12-08T10:54:48.129Z,994.75
2018-12-08T10:55:48.118Z,994.72
2018-12-08T10:56:48.108Z,994.71
2018-12-08T10:57:48.105Z,994.74
2018-12-08T10:58:48.086Z,994.73
2018-12-08T10:59:48.080Z,994.63
2018-12-08T11:00:48.065Z,994.55
2018-12-08T11:01:48.055Z,994.60
2018-12-08T11:02:48.054Z,994.52
2018-12-08T11:03:48.057Z,994.61
2018-12-08T11:04:48.024Z,994.57
2018-12-08T11:05:48.019Z,994.56
2018-12-08T11:06:48.005Z,994.44
2018-12-08T11:07:48.000Z,994.55
2018-12-08T11:08:47.981Z,994.56
2018-12-08T11:09:47.973Z,994.57
2018-12-08T11:10:47.966Z,994.58
2018-12-08T11:11:47.953Z,994.57
2018-12-08T11:12:47.946Z,994.46
2018-12-08T11:13:47.927Z,994.55
2018-12-08T11:14:47.917Z,994.52
2018-12-08T11:15:47.910Z,994.46
2018-12-08T11:16:47.900Z,994.45
2018-12-08T11:17:47.895Z,994.41
2018-12-08T11:18:47.875Z,994.45
2018-12-08T11:19:47.864Z,994.36
2018-12-08T11:20:47.854Z,994.29
2018-12-08T11:21:47.846Z,994.39
2018-12-08T11:22:47.842Z,994.29
2018-12-08T11:23:47.846Z,994.35
2018-12-08T11:24:47.813Z,994.24
2018-12-08T11:25:47.801Z,994.30
2018-12-08T11:26:47.790Z,994.32
2018-12-08T11:27:47.789Z,994.24
2018-12-08T11:28:47.774Z,994.27
2018-12-08T11:29:47.761Z,994.29
2018-12-08T11:30:47.749Z,994.28
2018-12-08T11:31:47.739Z,994.24
2018-12-08T11:32:47.738Z,994.13
2018-12-08T11:33:47.716Z,994.17
2018-12-08T11:34:47.710Z,994.17
2018-12-08T11:35:49.639Z,994.18
2018-12-08T11:36:49.695Z,994.19
2018-12-08T11:37:47.702Z,994.18
2018-12-08T11:38:47.663Z,994.14
2018-12-08T11:39:47.652Z,994.15
2018-12-08T11:40:47.649Z,994.07
2018-12-08T11:41:47.633Z,994.01
2018-12-08T11:42:47.620Z,994.03
2018-12-08T11:43:47.619Z,994.08
2018-12-08T11:44:47.600Z,994.03
2018-12-08T11:45:47.590Z,994.02
2018-12-08T11:46:47.586Z,994.00
2018-12-08T11:47:47.568Z,994.05
2018-12-08T11:48:47.567Z,993.99
2018-12-08T11:49:47.551Z,994.02
2018-12-08T11:50:47.537Z,994.14
2018-12-08T11:51:47.529Z,993.98
2018-12-08T11:52:47.520Z,993.96
2018-12-08T11:53:47.514Z,993.87
2018-12-08T11:54:47.494Z,993.91
2018-12-08T11:55:47.483Z,993.94
2018-12-08T11:56:47.473Z,993.98
2018-12-08T11:57:47.464Z,994.00
2018-12-08T11:58:47.462Z,993.92
2018-12-08T11:59:47.441Z,993.87
2018-12-08T12:00:47.431Z,993.93
2018-12-08T12:01:47.420Z,993.92
2018-12-08T12:02:47.427Z,993.89
2018-12-08T12:03:47.406Z,993.89
2018-12-08T12:04:47.388Z,993.85
2018-12-08T12:05:47.379Z,993.89
2018-12-08T12:06:47.368Z,993.84
2018-12-08T12:07:47.356Z,993.91
2018-12-08T12:08:47.355Z,993.84
2018-12-08T12:09:47.336Z,993.85
2018-12-08T12:10:47.324Z,993.83
2018-12-08T12:11:47.313Z,993.82
2018-12-08T12:12:47.306Z,993.78
2018-12-08T12:13:47.303Z,993.85
2018-12-08T12:14:47.282Z,993.82
2018-12-08T12:15:47.276Z,993.86
2018-12-08T12:16:47.260Z,993.74
2018-12-08T12:17:47.251Z,993.73
2018-12-08T12:18:47.249Z,993.79
2018-12-08T12:19:47.230Z,993.71
2018-12-08T12:20:47.217Z,993.73
2018-12-08T12:21:47.212Z,993.77
2018-12-08T12:22:47.199Z,993.71
2018-12-08T12:23:47.196Z,993.69
2018-12-08T12:24:47.176Z,993.71
2018-12-08T12:25:47.166Z,993.70
2018-12-08T12:26:47.155Z,993.66
2018-12-08T12:27:47.155Z,993.69
2018-12-08T12:28:47.165Z,993.67